Mattapan, Massachusetts
Current Conditions -  °F | °C
As of 6:53 PM on Sunday 23 Nov 2014 (Local Time) from KOWD Reporting Station
Few Clouds Few Clouds  
Wind Chill: 45°   Ceiling: Unl
Heat Index: 47°   Visibility: 10mi
Dew Point: 33°   Wind: 5mph
Humidity: 59%   Direction: 170°S
Pressure: 30.15"   Gusts: NA
Location:  42.27°N, 71.09°W
Report Text: KOWD 232353Z 17004KT 10SM FEW120 08/01 A3015 RMK AO2 SLP209 T00830006 10161 20083 52013
Loading
Personal Weather Stations






























Interactive Weather Map New forecast layout! Learn more

10-Day Weather Forecast

Advertisements
Track Severe Weather on mobile